sensor_id;sensor_type;location;lat;lon;timestamp;P1;durP1;ratioP1;P2;durP2;ratioP2
62863;SDS011;48954;59.950;11.014;2023-02-26T00:06:07;7.60;;;2.70;;
62863;SDS011;48954;59.950;11.014;2023-02-26T00:09:27;5.30;;;2.00;;
62863;SDS011;48954;59.950;11.014;2023-02-26T00:12:29;6.90;;;2.20;;
62863;SDS011;48954;59.950;11.014;2023-02-26T00:15:30;6.00;;;2.00;;
62863;SDS011;48954;59.950;11.014;2023-02-26T00:18:33;6.70;;;2.30;;
62863;SDS011;48954;59.950;11.014;2023-02-26T00:21:54;5.90;;;2.30;;
62863;SDS011;48954;59.950;11.014;2023-02-26T00:24:48;6.90;;;2.70;;
62863;SDS011;48954;59.950;11.014;2023-02-26T00:27:59;8.00;;;3.00;;
62863;SDS011;48954;59.950;11.014;2023-02-26T00:30:46;9.00;;;3.00;;
62863;SDS011;48954;59.950;11.014;2023-02-26T00:33:29;9.20;;;2.40;;
62863;SDS011;48954;59.950;11.014;2023-02-26T00:46:48;7.30;;;2.80;;
62863;SDS011;48954;59.950;11.014;2023-02-26T00:53:24;6.40;;;1.90;;
62863;SDS011;48954;59.950;11.014;2023-02-26T00:56:36;6.40;;;2.30;;
62863;SDS011;48954;59.950;11.014;2023-02-26T00:59:42;5.70;;;2.40;;
62863;SDS011;48954;59.950;11.014;2023-02-26T01:03:11;3.00;;;1.60;;
62863;SDS011;48954;59.950;11.014;2023-02-26T01:06:43;3.90;;;1.50;;
62863;SDS011;48954;59.950;11.014;2023-02-26T01:10:03;5.80;;;2.10;;
62863;SDS011;48954;59.950;11.014;2023-02-26T01:13:32;3.70;;;1.80;;
62863;SDS011;48954;59.950;11.014;2023-02-26T01:23:34;1.90;;;0.70;;
62863;SDS011;48954;59.950;11.014;2023-02-26T01:26:53;2.10;;;0.50;;
62863;SDS011;48954;59.950;11.014;2023-02-26T01:30:14;0.90;;;0.20;;
62863;SDS011;48954;59.950;11.014;2023-02-26T01:35:55;2.20;;;0.40;;
62863;SDS011;48954;59.950;11.014;2023-02-26T01:39:04;0.60;;;0.20;;
62863;SDS011;48954;59.950;11.014;2023-02-26T01:42:22;1.30;;;0.30;;
62863;SDS011;48954;59.950;11.014;2023-02-26T01:45:20;0.60;;;0.20;;
62863;SDS011;48954;59.950;11.014;2023-02-26T01:48:14;1.10;;;0.40;;
62863;SDS011;48954;59.950;11.014;2023-02-26T01:54:35;1.10;;;0.30;;
62863;SDS011;48954;59.950;11.014;2023-02-26T01:57:37;0.70;;;0.20;;
62863;SDS011;48954;59.950;11.014;2023-02-26T02:00:20;0.50;;;0.20;;
62863;SDS011;48954;59.950;11.014;2023-02-26T02:03:25;0.70;;;0.30;;
62863;SDS011;48954;59.950;11.014;2023-02-26T02:06:29;3.00;;;0.50;;
62863;SDS011;48954;59.950;11.014;2023-02-26T02:09:31;2.90;;;0.60;;
62863;SDS011;48954;59.950;11.014;2023-02-26T02:15:58;7.40;;;3.40;;
62863;SDS011;48954;59.950;11.014;2023-02-26T02:28:37;2.00;;;0.50;;
62863;SDS011;48954;59.950;11.014;2023-02-26T02:31:32;2.10;;;0.50;;
62863;SDS011;48954;59.950;11.014;2023-02-26T02:38:24;2.00;;;0.30;;
62863;SDS011;48954;59.950;11.014;2023-02-26T02:41:37;1.80;;;0.40;;
62863;SDS011;48954;59.950;11.014;2023-02-26T02:44:50;2.20;;;0.40;;
62863;SDS011;48954;59.950;11.014;2023-02-26T02:48:08;2.80;;;0.40;;
62863;SDS011;48954;59.950;11.014;2023-02-26T02:51:16;2.10;;;0.50;;
62863;SDS011;48954;59.950;11.014;2023-02-26T02:54:12;0.70;;;0.20;;
62863;SDS011;48954;59.950;11.014;2023-02-26T03:00:41;1.40;;;0.40;;
62863;SDS011;48954;59.950;11.014;2023-02-26T03:04:10;1.20;;;0.40;;
62863;SDS011;48954;59.950;11.014;2023-02-26T03:07:31;1.40;;;0.50;;
62863;SDS011;48954;59.950;11.014;2023-02-26T03:10:37;1.40;;;0.30;;
62863;SDS011;48954;59.950;11.014;2023-02-26T03:13:42;2.20;;;0.50;;
62863;SDS011;48954;59.950;11.014;2023-02-26T03:17:32;2.90;;;0.30;;
62863;SDS011;48954;59.950;11.014;2023-02-26T03:24:25;1.50;;;0.30;;
62863;SDS011;48954;59.950;11.014;2023-02-26T03:31:20;2.30;;;0.30;;
62863;SDS011;48954;59.950;11.014;2023-02-26T03:34:48;0.80;;;0.20;;
62863;SDS011;48954;59.950;11.014;2023-02-26T03:49:44;0.90;;;0.40;;
62863;SDS011;48954;59.950;11.014;2023-02-26T03:52:36;2.00;;;0.40;;
62863;SDS011;48954;59.950;11.014;2023-02-26T03:55:51;0.90;;;0.30;;
62863;SDS011;48954;59.950;11.014;2023-02-26T03:58:54;1.30;;;0.30;;
62863;SDS011;48954;59.950;11.014;2023-02-26T04:02:09;2.80;;;0.50;;
62863;SDS011;48954;59.950;11.014;2023-02-26T04:05:26;1.20;;;0.40;;
62863;SDS011;48954;59.950;11.014;2023-02-26T04:08:42;2.40;;;0.40;;
62863;SDS011;48954;59.950;11.014;2023-02-26T04:11:50;0.60;;;0.20;;
62863;SDS011;48954;59.950;11.014;2023-02-26T04:14:38;1.30;;;0.40;;
62863;SDS011;48954;59.950;11.014;2023-02-26T04:17:58;3.40;;;0.60;;
62863;SDS011;48954;59.950;11.014;2023-02-26T04:21:02;3.70;;;0.30;;
62863;SDS011;48954;59.950;11.014;2023-02-26T04:27:58;2.30;;;0.60;;
62863;SDS011;48954;59.950;11.014;2023-02-26T04:31:20;1.10;;;0.30;;
62863;SDS011;48954;59.950;11.014;2023-02-26T04:34:56;1.70;;;0.50;;
62863;SDS011;48954;59.950;11.014;2023-02-26T04:38:02;2.20;;;0.30;;
62863;SDS011;48954;59.950;11.014;2023-02-26T04:41:24;0.90;;;0.20;;
62863;SDS011;48954;59.950;11.014;2023-02-26T04:44:10;0.70;;;0.20;;
62863;SDS011;48954;59.950;11.014;2023-02-26T04:47:39;2.20;;;0.40;;
62863;SDS011;48954;59.950;11.014;2023-02-26T05:54:50;1.00;;;0.40;;
62863;SDS011;48954;59.950;11.014;2023-02-26T05:58:12;2.20;;;0.50;;
62863;SDS011;48954;59.950;11.014;2023-02-26T06:01:12;5.10;;;0.90;;
62863;SDS011;48954;59.950;11.014;2023-02-26T06:33:30;8.50;;;2.00;;
62863;SDS011;48954;59.950;11.014;2023-02-26T06:36:43;3.20;;;1.30;;
62863;SDS011;48954;59.950;11.014;2023-02-26T06:39:20;4.70;;;1.70;;
62863;SDS011;48954;59.950;11.014;2023-02-26T06:42:03;8.90;;;2.70;;
62863;SDS011;48954;59.950;11.014;2023-02-26T06:44:56;12.20;;;5.00;;
62863;SDS011;48954;59.950;11.014;2023-02-26T06:47:27;12.00;;;5.20;;
62863;SDS011;48954;59.950;11.014;2023-02-26T06:50:30;9.60;;;4.70;;
62863;SDS011;48954;59.950;11.014;2023-02-26T06:59:00;9.60;;;4.10;;
62863;SDS011;48954;59.950;11.014;2023-02-26T09:18:05;10.20;;;5.10;;
62863;SDS011;48954;59.950;11.014;2023-02-26T09:21:32;15.30;;;8.20;;
62863;SDS011;48954;59.950;11.014;2023-02-26T09:27:59;23.40;;;11.70;;
62863;SDS011;48954;59.950;11.014;2023-02-26T09:31:01;15.20;;;8.60;;
62863;SDS011;48954;59.950;11.014;2023-02-26T09:33:55;13.50;;;6.50;;
62863;SDS011;48954;59.950;11.014;2023-02-26T09:36:48;13.60;;;6.70;;
62863;SDS011;48954;59.950;11.014;2023-02-26T09:43:05;7.80;;;3.80;;
62863;SDS011;48954;59.950;11.014;2023-02-26T09:46:44;8.10;;;3.50;;
62863;SDS011;48954;59.950;11.014;2023-02-26T09:50:04;8.50;;;3.10;;
62863;SDS011;48954;59.950;11.014;2023-02-26T09:53:45;21.10;;;13.00;;
62863;SDS011;48954;59.950;11.014;2023-02-26T09:59:36;10.30;;;4.10;;
62863;SDS011;48954;59.950;11.014;2023-02-26T10:03:08;8.00;;;3.90;;
62863;SDS011;48954;59.950;11.014;2023-02-26T10:06:35;11.20;;;5.00;;
62863;SDS011;48954;59.950;11.014;2023-02-26T10:13:30;10.30;;;4.90;;
62863;SDS011;48954;59.950;11.014;2023-02-26T10:16:34;8.40;;;4.10;;
62863;SDS011;48954;59.950;11.014;2023-02-26T10:19:39;6.70;;;3.20;;
62863;SDS011;48954;59.950;11.014;2023-02-26T10:22:35;6.80;;;2.50;;
62863;SDS011;48954;59.950;11.014;2023-02-26T10:25:45;4.70;;;1.70;;
62863;SDS011;48954;59.950;11.014;2023-02-26T10:32:24;7.60;;;2.10;;
62863;SDS011;48954;59.950;11.014;2023-02-26T10:35:24;5.90;;;2.50;;
62863;SDS011;48954;59.950;11.014;2023-02-26T10:38:10;4.70;;;2.30;;
62863;SDS011;48954;59.950;11.014;2023-02-26T10:41:09;3.10;;;1.40;;
62863;SDS011;48954;59.950;11.014;2023-02-26T10:47:55;6.60;;;2.40;;
62863;SDS011;48954;59.950;11.014;2023-02-26T10:50:59;7.30;;;2.60;;
62863;SDS011;48954;59.950;11.014;2023-02-26T10:54:14;8.40;;;2.30;;
62863;SDS011;48954;59.950;11.014;2023-02-26T10:57:14;7.60;;;2.50;;
62863;SDS011;48954;59.950;11.014;2023-02-26T11:00:18;4.40;;;2.30;;
62863;SDS011;48954;59.950;11.014;2023-02-26T11:03:03;4.80;;;2.20;;
62863;SDS011;48954;59.950;11.014;2023-02-26T11:06:03;9.10;;;2.80;;
62863;SDS011;48954;59.950;11.014;2023-02-26T11:12:12;7.90;;;2.40;;
62863;SDS011;48954;59.950;11.014;2023-02-26T11:15:14;7.50;;;2.10;;
62863;SDS011;48954;59.950;11.014;2023-02-26T11:17:59;5.70;;;2.40;;
62863;SDS011;48954;59.950;11.014;2023-02-26T11:20:41;5.00;;;2.20;;
62863;SDS011;48954;59.950;11.014;2023-02-26T11:23:26;6.20;;;2.20;;
62863;SDS011;48954;59.950;11.014;2023-02-26T11:26:14;6.40;;;2.80;;
62863;SDS011;48954;59.950;11.014;2023-02-26T11:29:20;4.90;;;1.70;;
62863;SDS011;48954;59.950;11.014;2023-02-26T11:34:27;6.90;;;2.60;;
62863;SDS011;48954;59.950;11.014;2023-02-26T11:37:09;5.10;;;2.60;;
62863;SDS011;48954;59.950;11.014;2023-02-26T11:39:59;10.00;;;3.20;;
62863;SDS011;48954;59.950;11.014;2023-02-26T11:43:11;10.40;;;3.40;;
62863;SDS011;48954;59.950;11.014;2023-02-26T11:46:05;6.90;;;2.60;;
62863;SDS011;48954;59.950;11.014;2023-02-26T11:48:58;7.30;;;2.80;;
62863;SDS011;48954;59.950;11.014;2023-02-26T11:52:22;5.60;;;2.00;;
62863;SDS011;48954;59.950;11.014;2023-02-26T11:55:31;4.80;;;2.30;;
62863;SDS011;48954;59.950;11.014;2023-02-26T11:58:19;7.30;;;2.20;;
62863;SDS011;48954;59.950;11.014;2023-02-26T12:01:51;6.10;;;2.40;;
62863;SDS011;48954;59.950;11.014;2023-02-26T12:05:12;7.90;;;2.40;;
62863;SDS011;48954;59.950;11.014;2023-02-26T12:11:39;4.70;;;2.40;;
62863;SDS011;48954;59.950;11.014;2023-02-26T12:21:25;8.00;;;2.50;;
62863;SDS011;48954;59.950;11.014;2023-02-26T12:24:11;7.10;;;2.50;;
62863;SDS011;48954;59.950;11.014;2023-02-26T12:29:59;5.50;;;2.30;;
62863;SDS011;48954;59.950;11.014;2023-02-26T12:33:13;5.20;;;2.00;;
62863;SDS011;48954;59.950;11.014;2023-02-26T12:39:05;7.30;;;2.50;;
62863;SDS011;48954;59.950;11.014;2023-02-26T12:51:36;2.90;;;1.00;;
62863;SDS011;48954;59.950;11.014;2023-02-26T12:57:46;2.90;;;1.20;;
62863;SDS011;48954;59.950;11.014;2023-02-26T13:00:50;2.10;;;1.00;;
62863;SDS011;48954;59.950;11.014;2023-02-26T13:16:07;3.30;;;1.20;;
62863;SDS011;48954;59.950;11.014;2023-02-26T13:21:45;6.20;;;2.60;;
62863;SDS011;48954;59.950;11.014;2023-02-26T13:24:22;5.50;;;2.40;;
62863;SDS011;48954;59.950;11.014;2023-02-26T13:27:02;6.10;;;2.80;;
62863;SDS011;48954;59.950;11.014;2023-02-26T13:29:43;7.00;;;3.00;;
62863;SDS011;48954;59.950;11.014;2023-02-26T13:32:20;10.40;;;4.30;;
62863;SDS011;48954;59.950;11.014;2023-02-26T13:35:05;8.90;;;4.30;;
62863;SDS011;48954;59.950;11.014;2023-02-26T13:37:46;9.90;;;4.40;;
62863;SDS011;48954;59.950;11.014;2023-02-26T13:41:02;9.70;;;3.80;;
62863;SDS011;48954;59.950;11.014;2023-02-26T13:44:03;11.10;;;4.50;;
62863;SDS011;48954;59.950;11.014;2023-02-26T13:50:17;7.60;;;3.30;;
62863;SDS011;48954;59.950;11.014;2023-02-26T13:53:00;9.60;;;3.50;;
62863;SDS011;48954;59.950;11.014;2023-02-26T13:56:05;9.50;;;3.30;;
62863;SDS011;48954;59.950;11.014;2023-02-26T14:05:28;5.50;;;2.40;;
62863;SDS011;48954;59.950;11.014;2023-02-26T14:08:51;6.40;;;2.80;;
62863;SDS011;48954;59.950;11.014;2023-02-26T14:12:21;4.90;;;2.20;;
62863;SDS011;48954;59.950;11.014;2023-02-26T14:18:30;4.80;;;1.70;;
62863;SDS011;48954;59.950;11.014;2023-02-26T14:31:19;4.10;;;1.80;;
62863;SDS011;48954;59.950;11.014;2023-02-26T14:34:54;5.20;;;2.40;;
62863;SDS011;48954;59.950;11.014;2023-02-26T14:38:10;5.90;;;2.80;;
62863;SDS011;48954;59.950;11.014;2023-02-26T14:44:31;4.70;;;1.80;;
62863;SDS011;48954;59.950;11.014;2023-02-26T14:47:32;9.10;;;4.40;;
62863;SDS011;48954;59.950;11.014;2023-02-26T14:51:02;10.30;;;4.70;;
62863;SDS011;48954;59.950;11.014;2023-02-26T14:53:47;13.60;;;7.70;;
62863;SDS011;48954;59.950;11.014;2023-02-26T15:09:01;7.70;;;3.80;;
62863;SDS011;48954;59.950;11.014;2023-02-26T15:23:57;15.80;;;8.50;;
62863;SDS011;48954;59.950;11.014;2023-02-26T15:26:48;16.20;;;8.30;;
62863;SDS011;48954;59.950;11.014;2023-02-26T15:55:12;21.80;;;9.80;;
62863;SDS011;48954;59.950;11.014;2023-02-26T16:01:37;12.50;;;6.00;;
62863;SDS011;48954;59.950;11.014;2023-02-26T16:04:42;15.90;;;9.00;;
62863;SDS011;48954;59.950;11.014;2023-02-26T16:07:45;15.90;;;8.90;;
62863;SDS011;48954;59.950;11.014;2023-02-26T16:10:40;15.30;;;7.90;;
62863;SDS011;48954;59.950;11.014;2023-02-26T16:13:42;14.30;;;7.60;;
62863;SDS011;48954;59.950;11.014;2023-02-26T16:17:04;10.50;;;5.40;;
62863;SDS011;48954;59.950;11.014;2023-02-26T16:20:37;13.40;;;6.10;;
62863;SDS011;48954;59.950;11.014;2023-02-26T16:23:56;11.40;;;5.50;;
62863;SDS011;48954;59.950;11.014;2023-02-26T16:29:55;11.60;;;5.60;;
62863;SDS011;48954;59.950;11.014;2023-02-26T16:33:24;11.90;;;6.50;;
62863;SDS011;48954;59.950;11.014;2023-02-26T16:42:08;17.10;;;7.60;;
62863;SDS011;48954;59.950;11.014;2023-02-26T16:49:14;19.60;;;9.30;;
62863;SDS011;48954;59.950;11.014;2023-02-26T16:51:50;12.50;;;6.30;;
62863;SDS011;48954;59.950;11.014;2023-02-26T16:54:53;14.60;;;6.40;;
62863;SDS011;48954;59.950;11.014;2023-02-26T16:57:38;15.70;;;5.90;;
62863;SDS011;48954;59.950;11.014;2023-02-26T17:00:24;12.80;;;6.20;;
62863;SDS011;48954;59.950;11.014;2023-02-26T17:03:27;24.60;;;10.00;;
62863;SDS011;48954;59.950;11.014;2023-02-26T17:06:10;20.10;;;9.00;;
62863;SDS011;48954;59.950;11.014;2023-02-26T17:09:29;18.90;;;9.30;;
62863;SDS011;48954;59.950;11.014;2023-02-26T17:12:42;26.10;;;12.20;;
62863;SDS011;48954;59.950;11.014;2023-02-26T17:15:30;34.00;;;12.10;;
62863;SDS011;48954;59.950;11.014;2023-02-26T17:18:16;25.70;;;10.00;;
62863;SDS011;48954;59.950;11.014;2023-02-26T17:21:16;20.50;;;8.90;;
62863;SDS011;48954;59.950;11.014;2023-02-26T17:23:57;18.60;;;8.90;;
62863;SDS011;48954;59.950;11.014;2023-02-26T17:26:48;31.00;;;12.10;;
62863;SDS011;48954;59.950;11.014;2023-02-26T17:29:40;31.80;;;12.30;;
62863;SDS011;48954;59.950;11.014;2023-02-26T17:32:43;21.60;;;9.90;;
62863;SDS011;48954;59.950;11.014;2023-02-26T17:35:27;27.50;;;11.90;;
62863;SDS011;48954;59.950;11.014;2023-02-26T17:42:16;25.40;;;13.60;;
62863;SDS011;48954;59.950;11.014;2023-02-26T18:10:26;16.20;;;8.30;;
62863;SDS011;48954;59.950;11.014;2023-02-26T18:22:03;17.20;;;9.40;;
62863;SDS011;48954;59.950;11.014;2023-02-26T18:24:50;17.60;;;8.50;;
62863;SDS011;48954;59.950;11.014;2023-02-26T18:28:24;15.20;;;6.50;;
62863;SDS011;48954;59.950;11.014;2023-02-26T18:31:32;14.70;;;6.40;;
62863;SDS011;48954;59.950;11.014;2023-02-26T18:34:55;12.00;;;5.10;;
62863;SDS011;48954;59.950;11.014;2023-02-26T18:55:11;26.30;;;10.90;;
62863;SDS011;48954;59.950;11.014;2023-02-26T18:58:30;16.10;;;7.50;;
62863;SDS011;48954;59.950;11.014;2023-02-26T19:01:02;13.90;;;5.90;;
62863;SDS011;48954;59.950;11.014;2023-02-26T19:03:43;15.00;;;6.10;;
62863;SDS011;48954;59.950;11.014;2023-02-26T19:06:12;12.10;;;6.40;;
62863;SDS011;48954;59.950;11.014;2023-02-26T19:08:43;14.30;;;6.10;;
62863;SDS011;48954;59.950;11.014;2023-02-26T19:11:10;14.10;;;7.00;;
62863;SDS011;48954;59.950;11.014;2023-02-26T19:13:37;14.90;;;7.10;;
62863;SDS011;48954;59.950;11.014;2023-02-26T19:16:04;14.70;;;6.80;;
62863;SDS011;48954;59.950;11.014;2023-02-26T19:21:12;14.50;;;6.80;;
62863;SDS011;48954;59.950;11.014;2023-02-26T19:23:40;16.80;;;7.30;;
62863;SDS011;48954;59.950;11.014;2023-02-26T19:26:08;18.50;;;9.10;;
62863;SDS011;48954;59.950;11.014;2023-02-26T19:28:35;17.40;;;9.20;;
62863;SDS011;48954;59.950;11.014;2023-02-26T19:31:15;16.60;;;9.40;;
62863;SDS011;48954;59.950;11.014;2023-02-26T19:33:43;25.80;;;11.40;;
62863;SDS011;48954;59.950;11.014;2023-02-26T19:36:11;23.20;;;10.30;;
62863;SDS011;48954;59.950;11.014;2023-02-26T19:38:47;24.60;;;11.60;;
62863;SDS011;48954;59.950;11.014;2023-02-26T19:41:28;18.90;;;10.10;;
62863;SDS011;48954;59.950;11.014;2023-02-26T19:44:12;16.70;;;8.20;;
62863;SDS011;48954;59.950;11.014;2023-02-26T19:46:45;16.10;;;8.60;;
62863;SDS011;48954;59.950;11.014;2023-02-26T19:49:19;14.90;;;8.00;;
62863;SDS011;48954;59.950;11.014;2023-02-26T19:51:47;18.00;;;8.90;;
62863;SDS011;48954;59.950;11.014;2023-02-26T19:54:17;16.20;;;9.20;;
62863;SDS011;48954;59.950;11.014;2023-02-26T19:56:59;13.60;;;7.70;;
62863;SDS011;48954;59.950;11.014;2023-02-26T20:00:01;10.10;;;5.40;;
62863;SDS011;48954;59.950;11.014;2023-02-26T20:03:02;9.00;;;4.60;;
62863;SDS011;48954;59.950;11.014;2023-02-26T20:06:05;11.00;;;5.60;;
62863;SDS011;48954;59.950;11.014;2023-02-26T20:11:41;9.30;;;4.90;;
62863;SDS011;48954;59.950;11.014;2023-02-26T20:34:58;17.90;;;7.40;;
62863;SDS011;48954;59.950;11.014;2023-02-26T20:38:22;16.50;;;6.40;;
62863;SDS011;48954;59.950;11.014;2023-02-26T20:58:00;12.90;;;6.00;;
62863;SDS011;48954;59.950;11.014;2023-02-26T21:01:21;14.20;;;5.40;;
62863;SDS011;48954;59.950;11.014;2023-02-26T21:04:27;14.50;;;5.90;;
62863;SDS011;48954;59.950;11.014;2023-02-26T21:07:07;15.90;;;6.40;;
62863;SDS011;48954;59.950;11.014;2023-02-26T21:10:17;15.80;;;7.20;;
62863;SDS011;48954;59.950;11.014;2023-02-26T21:41:43;21.90;;;9.00;;
62863;SDS011;48954;59.950;11.014;2023-02-26T22:24:54;10.20;;;4.50;;
62863;SDS011;48954;59.950;11.014;2023-02-26T22:27:48;10.60;;;4.80;;
62863;SDS011;48954;59.950;11.014;2023-02-26T22:30:26;10.30;;;4.60;;
